sensor_id;sensor_type;location;lat;lon;timestamp;pressure;altitude;pressure_sealevel;temperature;humidity
49178;BME280;35016;55.674;37.468;2023-04-25T00:00:15;98849.84;;;12.07;39.16
49178;BME280;35016;55.674;37.468;2023-04-25T00:02:42;98844.66;;;12.11;39.39
49178;BME280;35016;55.674;37.468;2023-04-25T00:05:09;98836.22;;;12.13;39.54
49178;BME280;35016;55.674;37.468;2023-04-25T00:07:38;98839.47;;;12.15;40.00
49178;BME280;35016;55.674;37.468;2023-04-25T00:10:05;98837.81;;;12.19;39.60
49178;BME280;35016;55.674;37.468;2023-04-25T00:12:33;98836.41;;;12.21;39.89
49178;BME280;35016;55.674;37.468;2023-04-25T00:15:00;98844.00;;;12.24;40.43
49178;BME280;35016;55.674;37.468;2023-04-25T00:17:28;98849.09;;;12.31;40.00
49178;BME280;35016;55.674;37.468;2023-04-25T00:19:56;98847.13;;;12.36;39.96
49178;BME280;35016;55.674;37.468;2023-04-25T00:22:24;98844.69;;;12.35;40.06
49178;BME280;35016;55.674;37.468;2023-04-25T00:24:51;98858.22;;;12.45;40.21
49178;BME280;35016;55.674;37.468;2023-04-25T00:27:20;98846.75;;;12.48;40.33
49178;BME280;35016;55.674;37.468;2023-04-25T00:29:47;98846.41;;;12.55;40.42
49178;BME280;35016;55.674;37.468;2023-04-25T00:32:14;98850.69;;;12.61;40.24
49178;BME280;35016;55.674;37.468;2023-04-25T00:34:41;98847.34;;;12.69;40.41
49178;BME280;35016;55.674;37.468;2023-04-25T00:37:08;98857.59;;;12.77;40.27
49178;BME280;35016;55.674;37.468;2023-04-25T00:39:35;98851.00;;;12.83;40.09
49178;BME280;35016;55.674;37.468;2023-04-25T00:42:02;98863.44;;;12.89;40.37
49178;BME280;35016;55.674;37.468;2023-04-25T00:44:30;98849.78;;;12.94;40.16
49178;BME280;35016;55.674;37.468;2023-04-25T00:47:00;98855.13;;;12.99;40.45
49178;BME280;35016;55.674;37.468;2023-04-25T00:49:28;98850.81;;;12.98;40.14
49178;BME280;35016;55.674;37.468;2023-04-25T00:51:56;98858.44;;;12.96;40.26
49178;BME280;35016;55.674;37.468;2023-04-25T00:54:23;98850.28;;;12.96;40.63
49178;BME280;35016;55.674;37.468;2023-04-25T00:56:52;98852.19;;;12.96;40.73
49178;BME280;35016;55.674;37.468;2023-04-25T00:59:20;98853.00;;;12.96;40.85
49178;BME280;35016;55.674;37.468;2023-04-25T01:01:47;98844.63;;;12.93;40.75
49178;BME280;35016;55.674;37.468;2023-04-25T01:04:14;98846.59;;;12.87;40.66
49178;BME280;35016;55.674;37.468;2023-04-25T01:06:42;98852.03;;;12.87;40.83
49178;BME280;35016;55.674;37.468;2023-04-25T01:09:09;98856.16;;;12.85;40.87
49178;BME280;35016;55.674;37.468;2023-04-25T01:11:36;98846.66;;;12.82;40.98
49178;BME280;35016;55.674;37.468;2023-04-25T01:14:03;98852.09;;;12.82;40.99
49178;BME280;35016;55.674;37.468;2023-04-25T01:16:30;98835.53;;;12.79;40.78
49178;BME280;35016;55.674;37.468;2023-04-25T01:18:59;98836.66;;;12.78;41.31
49178;BME280;35016;55.674;37.468;2023-04-25T01:21:26;98837.75;;;12.77;41.46
49178;BME280;35016;55.674;37.468;2023-04-25T01:23:55;98846.19;;;12.75;41.35
49178;BME280;35016;55.674;37.468;2023-04-25T01:26:22;98844.28;;;12.76;41.44
49178;BME280;35016;55.674;37.468;2023-04-25T01:28:50;98835.84;;;12.77;41.40
49178;BME280;35016;55.674;37.468;2023-04-25T01:31:18;98834.75;;;12.78;41.11
49178;BME280;35016;55.674;37.468;2023-04-25T01:33:47;98841.00;;;12.79;41.21
49178;BME280;35016;55.674;37.468;2023-04-25T01:36:15;98837.69;;;12.82;41.52
49178;BME280;35016;55.674;37.468;2023-04-25T01:38:42;98829.75;;;12.85;41.43
49178;BME280;35016;55.674;37.468;2023-04-25T01:41:10;98832.19;;;12.87;41.41
49178;BME280;35016;55.674;37.468;2023-04-25T01:43:38;98831.88;;;12.88;41.23
49178;BME280;35016;55.674;37.468;2023-04-25T01:46:05;98828.06;;;12.89;41.70
49178;BME280;35016;55.674;37.468;2023-04-25T01:48:32;98832.09;;;12.92;41.56
49178;BME280;35016;55.674;37.468;2023-04-25T01:50:59;98838.59;;;12.96;41.25
49178;BME280;35016;55.674;37.468;2023-04-25T01:53:28;98829.84;;;12.99;41.23
49178;BME280;35016;55.674;37.468;2023-04-25T01:55:55;98827.66;;;13.01;41.41
49178;BME280;35016;55.674;37.468;2023-04-25T01:58:25;98832.81;;;13.02;41.44
49178;BME280;35016;55.674;37.468;2023-04-25T02:01:27;98820.00;;;13.03;41.60
49178;BME280;35016;55.674;37.468;2023-04-25T02:04:11;98830.03;;;13.08;41.01
49178;BME280;35016;55.674;37.468;2023-04-25T02:06:39;98828.34;;;13.12;41.41
49178;BME280;35016;55.674;37.468;2023-04-25T02:09:07;98822.59;;;13.13;41.62
49178;BME280;35016;55.674;37.468;2023-04-25T02:11:39;98818.47;;;13.16;41.58
49178;BME280;35016;55.674;37.468;2023-04-25T02:14:25;98821.66;;;13.23;41.43
49178;BME280;35016;55.674;37.468;2023-04-25T02:17:18;98815.63;;;13.26;41.01
49178;BME280;35016;55.674;37.468;2023-04-25T02:19:45;98815.34;;;13.27;41.43
49178;BME280;35016;55.674;37.468;2023-04-25T02:22:12;98814.22;;;13.28;41.09
49178;BME280;35016;55.674;37.468;2023-04-25T02:24:39;98819.13;;;13.31;41.40
49178;BME280;35016;55.674;37.468;2023-04-25T02:27:06;98819.94;;;13.32;41.55
49178;BME280;35016;55.674;37.468;2023-04-25T02:29:35;98821.25;;;13.35;41.19
49178;BME280;35016;55.674;37.468;2023-04-25T02:32:02;98820.50;;;13.29;41.34
49178;BME280;35016;55.674;37.468;2023-04-25T02:34:29;98821.03;;;13.31;41.34
49178;BME280;35016;55.674;37.468;2023-04-25T02:36:59;98827.22;;;13.37;41.62
49178;BME280;35016;55.674;37.468;2023-04-25T02:39:26;98828.25;;;13.41;41.53
49178;BME280;35016;55.674;37.468;2023-04-25T02:41:55;98822.19;;;13.44;41.48
49178;BME280;35016;55.674;37.468;2023-04-25T02:44:22;98829.19;;;13.50;41.33
49178;BME280;35016;55.674;37.468;2023-04-25T02:46:49;98833.16;;;13.57;41.39
49178;BME280;35016;55.674;37.468;2023-04-25T02:49:16;98832.00;;;13.63;41.36
49178;BME280;35016;55.674;37.468;2023-04-25T02:51:43;98825.94;;;13.67;41.34
49178;BME280;35016;55.674;37.468;2023-04-25T02:54:10;98832.94;;;13.73;41.27
49178;BME280;35016;55.674;37.468;2023-04-25T02:56:41;98811.34;;;13.76;41.25
49178;BME280;35016;55.674;37.468;2023-04-25T02:59:13;98817.00;;;13.80;41.08
49178;BME280;35016;55.674;37.468;2023-04-25T03:01:40;98813.63;;;13.88;40.81
49178;BME280;35016;55.674;37.468;2023-04-25T03:04:07;98812.63;;;13.98;40.65
49178;BME280;35016;55.674;37.468;2023-04-25T03:06:34;98816.28;;;14.07;40.62
49178;BME280;35016;55.674;37.468;2023-04-25T03:09:02;98806.41;;;14.11;40.54
49178;BME280;35016;55.674;37.468;2023-04-25T03:11:29;98812.31;;;14.18;40.61
49178;BME280;35016;55.674;37.468;2023-04-25T03:13:56;98813.63;;;14.20;40.69
49178;BME280;35016;55.674;37.468;2023-04-25T03:16:23;98824.22;;;14.22;40.44
49178;BME280;35016;55.674;37.468;2023-04-25T03:18:50;98806.84;;;14.18;40.82
49178;BME280;35016;55.674;37.468;2023-04-25T03:21:18;98815.03;;;14.18;40.93
49178;BME280;35016;55.674;37.468;2023-04-25T03:23:45;98826.50;;;14.15;40.95
49178;BME280;35016;55.674;37.468;2023-04-25T03:26:12;98818.31;;;14.15;40.99
49178;BME280;35016;55.674;37.468;2023-04-25T03:28:39;98828.44;;;14.14;41.04
49178;BME280;35016;55.674;37.468;2023-04-25T03:31:06;98819.75;;;14.12;41.26
49178;BME280;35016;55.674;37.468;2023-04-25T03:33:33;98840.22;;;14.10;41.43
49178;BME280;35016;55.674;37.468;2023-04-25T03:36:01;98830.94;;;14.11;41.30
49178;BME280;35016;55.674;37.468;2023-04-25T03:38:28;98828.22;;;14.11;41.29
49178;BME280;35016;55.674;37.468;2023-04-25T03:40:56;98827.63;;;14.14;41.38
49178;BME280;35016;55.674;37.468;2023-04-25T03:43:33;98825.94;;;14.18;41.27
49178;BME280;35016;55.674;37.468;2023-04-25T03:46:04;98825.13;;;14.17;41.28
49178;BME280;35016;55.674;37.468;2023-04-25T03:48:31;98823.22;;;14.18;41.35
49178;BME280;35016;55.674;37.468;2023-04-25T03:50:59;98826.94;;;14.22;41.33
49178;BME280;35016;55.674;37.468;2023-04-25T03:53:26;98829.06;;;14.25;41.26
49178;BME280;35016;55.674;37.468;2023-04-25T03:56:12;98834.22;;;14.26;41.31
49178;BME280;35016;55.674;37.468;2023-04-25T03:58:40;98829.28;;;14.29;41.34
49178;BME280;35016;55.674;37.468;2023-04-25T04:01:07;98826.84;;;14.27;41.47
49178;BME280;35016;55.674;37.468;2023-04-25T04:03:37;98820.28;;;14.28;41.46
49178;BME280;35016;55.674;37.468;2023-04-25T04:06:06;98822.81;;;14.24;41.57
49178;BME280;35016;55.674;37.468;2023-04-25T04:08:37;98809.28;;;14.19;41.68
49178;BME280;35016;55.674;37.468;2023-04-25T04:11:05;98812.56;;;14.16;41.51
49178;BME280;35016;55.674;37.468;2023-04-25T04:13:32;98813.16;;;14.13;41.82
49178;BME280;35016;55.674;37.468;2023-04-25T04:16:01;98819.06;;;14.20;41.85
49178;BME280;35016;55.674;37.468;2023-04-25T04:18:28;98821.50;;;14.22;41.92
49178;BME280;35016;55.674;37.468;2023-04-25T04:20:56;98822.81;;;14.24;42.08
49178;BME280;35016;55.674;37.468;2023-04-25T04:23:27;98815.34;;;14.30;41.83
49178;BME280;35016;55.674;37.468;2023-04-25T04:25:56;98824.22;;;14.36;41.97
49178;BME280;35016;55.674;37.468;2023-04-25T04:28:26;98810.59;;;14.36;41.89
49178;BME280;35016;55.674;37.468;2023-04-25T04:31:16;98815.38;;;14.44;41.68
49178;BME280;35016;55.674;37.468;2023-04-25T04:33:47;98820.03;;;14.43;42.01
49178;BME280;35016;55.674;37.468;2023-04-25T04:36:15;98814.19;;;14.50;41.89
49178;BME280;35016;55.674;37.468;2023-04-25T04:38:43;98823.69;;;14.52;41.80
49178;BME280;35016;55.674;37.468;2023-04-25T04:41:18;98827.44;;;14.56;41.83
49178;BME280;35016;55.674;37.468;2023-04-25T04:44:05;98828.66;;;14.64;42.01
49178;BME280;35016;55.674;37.468;2023-04-25T04:46:53;98819.53;;;14.69;41.89
49178;BME280;35016;55.674;37.468;2023-04-25T04:49:52;98818.06;;;14.76;41.66
49178;BME280;35016;55.674;37.468;2023-04-25T04:52:30;98815.63;;;14.75;41.90
49178;BME280;35016;55.674;37.468;2023-04-25T04:55:23;98811.19;;;14.79;41.65
49178;BME280;35016;55.674;37.468;2023-04-25T04:58:01;98818.03;;;14.90;41.88
49178;BME280;35016;55.674;37.468;2023-04-25T05:00:38;98820.16;;;14.93;41.82
49178;BME280;35016;55.674;37.468;2023-04-25T05:03:23;98814.38;;;14.95;42.05
49178;BME280;35016;55.674;37.468;2023-04-25T05:06:03;98810.25;;;14.97;42.05
49178;BME280;35016;55.674;37.468;2023-04-25T05:08:40;98814.78;;;15.02;41.87
49178;BME280;35016;55.674;37.468;2023-04-25T05:11:13;98807.31;;;15.07;42.08
49178;BME280;35016;55.674;37.468;2023-04-25T05:14:15;98817.31;;;15.12;41.96
49178;BME280;35016;55.674;37.468;2023-04-25T05:16:43;98821.34;;;15.14;41.92
49178;BME280;35016;55.674;37.468;2023-04-25T05:19:29;98813.03;;;15.19;41.59
49178;BME280;35016;55.674;37.468;2023-04-25T05:22:14;98805.84;;;15.24;41.83
49178;BME280;35016;55.674;37.468;2023-04-25T05:25:08;98813.53;;;15.35;41.47
49178;BME280;35016;55.674;37.468;2023-04-25T05:27:59;98802.19;;;15.42;41.37
49178;BME280;35016;55.674;37.468;2023-04-25T05:30:57;98806.47;;;15.57;41.10
49178;BME280;35016;55.674;37.468;2023-04-25T05:33:30;98812.88;;;15.66;40.80
49178;BME280;35016;55.674;37.468;2023-04-25T05:35:58;98801.50;;;15.72;40.67
49178;BME280;35016;55.674;37.468;2023-04-25T05:38:26;98808.63;;;15.82;40.28
49178;BME280;35016;55.674;37.468;2023-04-25T05:41:16;98805.66;;;15.92;40.04
49178;BME280;35016;55.674;37.468;2023-04-25T05:44:06;98797.38;;;16.06;39.94
49178;BME280;35016;55.674;37.468;2023-04-25T05:46:42;98798.72;;;16.17;39.51
49178;BME280;35016;55.674;37.468;2023-04-25T05:49:24;98792.31;;;16.22;39.32
49178;BME280;35016;55.674;37.468;2023-04-25T05:52:19;98804.78;;;16.36;39.21
49178;BME280;35016;55.674;37.468;2023-04-25T05:55:08;98800.63;;;16.48;39.11
49178;BME280;35016;55.674;37.468;2023-04-25T05:57:36;98791.50;;;16.52;38.76
49178;BME280;35016;55.674;37.468;2023-04-25T06:00:05;98797.97;;;16.56;38.84
49178;BME280;35016;55.674;37.468;2023-04-25T06:02:43;98789.13;;;16.59;38.88
49178;BME280;35016;55.674;37.468;2023-04-25T06:05:13;98785.25;;;16.60;38.83
49178;BME280;35016;55.674;37.468;2023-04-25T06:07:40;98789.13;;;16.59;38.35
49178;BME280;35016;55.674;37.468;2023-04-25T06:10:08;98780.81;;;16.73;38.29
49178;BME280;35016;55.674;37.468;2023-04-25T06:12:35;98770.53;;;16.79;37.94
49178;BME280;35016;55.674;37.468;2023-04-25T06:15:03;98783.94;;;16.89;37.92
49178;BME280;35016;55.674;37.468;2023-04-25T06:17:49;98772.50;;;16.95;37.45
49178;BME280;35016;55.674;37.468;2023-04-25T06:20:16;98776.06;;;17.04;37.47
49178;BME280;35016;55.674;37.468;2023-04-25T06:22:44;98768.84;;;17.09;37.08
49178;BME280;35016;55.674;37.468;2023-04-25T06:25:11;98758.03;;;17.12;36.97
49178;BME280;35016;55.674;37.468;2023-04-25T06:27:38;98751.44;;;17.13;36.85
49178;BME280;35016;55.674;37.468;2023-04-25T06:30:07;98763.03;;;17.19;36.71
49178;BME280;35016;55.674;37.468;2023-04-25T06:32:35;98759.66;;;17.22;36.71
49178;BME280;35016;55.674;37.468;2023-04-25T06:35:04;98759.97;;;17.29;36.42
49178;BME280;35016;55.674;37.468;2023-04-25T06:37:33;98764.19;;;17.35;36.27
49178;BME280;35016;55.674;37.468;2023-04-25T06:40:01;98763.22;;;17.40;36.00
49178;BME280;35016;55.674;37.468;2023-04-25T06:42:29;98761.13;;;17.45;35.91
49178;BME280;35016;55.674;37.468;2023-04-25T06:44:57;98761.59;;;17.47;35.64
49178;BME280;35016;55.674;37.468;2023-04-25T06:47:29;98757.41;;;17.50;35.57
49178;BME280;35016;55.674;37.468;2023-04-25T06:49:58;98765.63;;;17.58;35.24
49178;BME280;35016;55.674;37.468;2023-04-25T06:52:26;98765.28;;;17.60;35.04
49178;BME280;35016;55.674;37.468;2023-04-25T06:54:53;98764.34;;;17.64;34.95
49178;BME280;35016;55.674;37.468;2023-04-25T06:57:38;98765.97;;;17.65;34.94
49178;BME280;35016;55.674;37.468;2023-04-25T07:00:28;98765.34;;;17.69;34.96
49178;BME280;35016;55.674;37.468;2023-04-25T07:02:57;98770.50;;;17.70;34.79
49178;BME280;35016;55.674;37.468;2023-04-25T07:05:25;98774.38;;;17.69;34.73
49178;BME280;35016;55.674;37.468;2023-04-25T07:07:52;98765.97;;;17.65;34.41
49178;BME280;35016;55.674;37.468;2023-04-25T07:10:20;98767.75;;;17.70;34.44
49178;BME280;35016;55.674;37.468;2023-04-25T07:12:48;98762.91;;;17.76;34.16
49178;BME280;35016;55.674;37.468;2023-04-25T07:15:15;98761.91;;;17.80;34.19
49178;BME280;35016;55.674;37.468;2023-04-25T07:17:50;98763.34;;;17.86;34.31
49178;BME280;35016;55.674;37.468;2023-04-25T07:20:18;98763.50;;;17.90;34.48
49178;BME280;35016;55.674;37.468;2023-04-25T07:22:45;98758.22;;;17.93;34.64
49178;BME280;35016;55.674;37.468;2023-04-25T07:25:15;98758.03;;;17.99;34.44
49178;BME280;35016;55.674;37.468;2023-04-25T07:27:42;98761.25;;;18.01;33.97
49178;BME280;35016;55.674;37.468;2023-04-25T07:30:18;98754.31;;;18.03;34.04
49178;BME280;35016;55.674;37.468;2023-04-25T07:32:45;98755.25;;;18.07;33.96
49178;BME280;35016;55.674;37.468;2023-04-25T07:35:12;98752.66;;;18.11;33.86
49178;BME280;35016;55.674;37.468;2023-04-25T07:37:40;98754.91;;;18.17;33.76
49178;BME280;35016;55.674;37.468;2023-04-25T07:40:15;98755.69;;;18.26;34.04
49178;BME280;35016;55.674;37.468;2023-04-25T07:42:50;98751.16;;;18.31;33.81
49178;BME280;35016;55.674;37.468;2023-04-25T07:45:25;98753.38;;;18.37;33.97
49178;BME280;35016;55.674;37.468;2023-04-25T07:47:53;98762.72;;;18.45;33.70
49178;BME280;35016;55.674;37.468;2023-04-25T07:50:21;98761.41;;;18.51;33.65
49178;BME280;35016;55.674;37.468;2023-04-25T07:52:48;98753.78;;;18.56;33.65
49178;BME280;35016;55.674;37.468;2023-04-25T07:55:30;98744.91;;;18.60;33.55
49178;BME280;35016;55.674;37.468;2023-04-25T07:58:07;98752.31;;;18.59;33.63
49178;BME280;35016;55.674;37.468;2023-04-25T08:00:36;98758.34;;;18.52;33.98
49178;BME280;35016;55.674;37.468;2023-04-25T08:03:26;98757.38;;;18.48;34.13
49178;BME280;35016;55.674;37.468;2023-04-25T08:05:54;98753.97;;;18.51;34.08
49178;BME280;35016;55.674;37.468;2023-04-25T08:08:23;98752.31;;;18.59;34.00
49178;BME280;35016;55.674;37.468;2023-04-25T08:10:50;98753.84;;;18.77;33.98
49178;BME280;35016;55.674;37.468;2023-04-25T08:13:17;98759.28;;;18.95;33.84
49178;BME280;35016;55.674;37.468;2023-04-25T08:15:45;98759.34;;;19.07;33.50
49178;BME280;35016;55.674;37.468;2023-04-25T08:18:12;98753.00;;;19.15;33.49
49178;BME280;35016;55.674;37.468;2023-04-25T08:20:43;98753.47;;;19.17;33.53
49178;BME280;35016;55.674;37.468;2023-04-25T08:23:11;98756.00;;;19.22;33.57
49178;BME280;35016;55.674;37.468;2023-04-25T08:25:46;98755.00;;;19.27;33.68
49178;BME280;35016;55.674;37.468;2023-04-25T08:28:15;98753.06;;;19.27;33.57
49178;BME280;35016;55.674;37.468;2023-04-25T08:30:44;98750.78;;;19.29;33.56
49178;BME280;35016;55.674;37.468;2023-04-25T08:33:13;98751.78;;;19.25;33.51
49178;BME280;35016;55.674;37.468;2023-04-25T08:36:15;98745.16;;;19.26;33.51
49178;BME280;35016;55.674;37.468;2023-04-25T08:39:01;98737.50;;;19.31;33.57
49178;BME280;35016;55.674;37.468;2023-04-25T08:41:29;98738.84;;;19.46;33.37
49178;BME280;35016;55.674;37.468;2023-04-25T08:43:56;98742.53;;;19.71;33.36
49178;BME280;35016;55.674;37.468;2023-04-25T08:46:27;98729.13;;;20.02;32.96
49178;BME280;35016;55.674;37.468;2023-04-25T08:49:17;98729.16;;;20.27;32.90
49178;BME280;35016;55.674;37.468;2023-04-25T08:51:45;98731.50;;;20.49;32.52
49178;BME280;35016;55.674;37.468;2023-04-25T08:54:22;98724.03;;;20.62;32.18
49178;BME280;35016;55.674;37.468;2023-04-25T08:57:03;98720.00;;;20.71;32.14
49178;BME280;35016;55.674;37.468;2023-04-25T08:59:32;98722.88;;;20.75;32.11
49178;BME280;35016;55.674;37.468;2023-04-25T09:02:00;98724.97;;;20.66;31.93
49178;BME280;35016;55.674;37.468;2023-04-25T09:04:31;98711.06;;;20.50;32.32
49178;BME280;35016;55.674;37.468;2023-04-25T09:06:58;98721.28;;;20.50;32.36
49178;BME280;35016;55.674;37.468;2023-04-25T09:09:25;98709.09;;;20.51;32.02
49178;BME280;35016;55.674;37.468;2023-04-25T09:11:54;98710.25;;;20.50;31.90
49178;BME280;35016;55.674;37.468;2023-04-25T09:14:23;98715.22;;;20.56;31.77
49178;BME280;35016;55.674;37.468;2023-04-25T09:17:17;98694.09;;;20.60;31.63
49178;BME280;35016;55.674;37.468;2023-04-25T09:19:51;98709.25;;;20.54;31.72
49178;BME280;35016;55.674;37.468;2023-04-25T09:22:22;98695.78;;;20.53;31.74
49178;BME280;35016;55.674;37.468;2023-04-25T09:24:50;98695.34;;;20.63;31.71
49178;BME280;35016;55.674;37.468;2023-04-25T09:27:21;98699.22;;;20.74;31.47
49178;BME280;35016;55.674;37.468;2023-04-25T09:30:01;98700.03;;;20.75;31.54
49178;BME280;35016;55.674;37.468;2023-04-25T09:32:42;98705.88;;;20.73;31.46
49178;BME280;35016;55.674;37.468;2023-04-25T09:35:10;98696.81;;;20.72;31.19
49178;BME280;35016;55.674;37.468;2023-04-25T09:37:40;98694.06;;;20.72;31.35
49178;BME280;35016;55.674;37.468;2023-04-25T09:40:44;98689.13;;;20.90;30.89
49178;BME280;35016;55.674;37.468;2023-04-25T09:43:23;98683.66;;;21.06;30.79
49178;BME280;35016;55.674;37.468;2023-04-25T09:45:52;98695.38;;;21.27;30.47
49178;BME280;35016;55.674;37.468;2023-04-25T09:48:24;98684.31;;;21.40;30.32
49178;BME280;35016;55.674;37.468;2023-04-25T09:53:30;98685.13;;;21.56;29.86
49178;BME280;35016;55.674;37.468;2023-04-25T09:56:21;98680.94;;;21.46;29.70
49178;BME280;35016;55.674;37.468;2023-04-25T09:58:50;98673.03;;;21.32;29.50
49178;BME280;35016;55.674;37.468;2023-04-25T10:01:21;98673.78;;;21.17;29.59
49178;BME280;35016;55.674;37.468;2023-04-25T10:04:05;98667.03;;;21.02;29.69
49178;BME280;35016;55.674;37.468;2023-04-25T10:06:45;98667.88;;;20.91;29.57
49178;BME280;35016;55.674;37.468;2023-04-25T10:09:15;98670.88;;;20.86;29.59
49178;BME280;35016;55.674;37.468;2023-04-25T10:11:42;98664.66;;;20.89;29.40
49178;BME280;35016;55.674;37.468;2023-04-25T10:14:11;98659.81;;;20.98;29.25
49178;BME280;35016;55.674;37.468;2023-04-25T10:16:41;98665.53;;;21.05;29.34
49178;BME280;35016;55.674;37.468;2023-04-25T10:19:09;98645.28;;;21.13;29.20
49178;BME280;35016;55.674;37.468;2023-04-25T10:21:46;98661.97;;;21.45;28.75
49178;BME280;35016;55.674;37.468;2023-04-25T10:24:15;98659.34;;;21.64;28.93
49178;BME280;35016;55.674;37.468;2023-04-25T10:26:42;98646.09;;;21.70;28.72
49178;BME280;35016;55.674;37.468;2023-04-25T10:29:09;98654.91;;;21.75;28.39
49178;BME280;35016;55.674;37.468;2023-04-25T10:31:45;98652.06;;;21.87;28.18
49178;BME280;35016;55.674;37.468;2023-04-25T10:34:13;98642.72;;;21.92;28.39
49178;BME280;35016;55.674;37.468;2023-04-25T10:36:40;98646.13;;;22.01;28.01
49178;BME280;35016;55.674;37.468;2023-04-25T10:39:08;98648.75;;;22.10;28.29
49178;BME280;35016;55.674;37.468;2023-04-25T10:41:53;98645.50;;;22.23;27.75
49178;BME280;35016;55.674;37.468;2023-04-25T10:44:22;98636.97;;;22.29;28.11
49178;BME280;35016;55.674;37.468;2023-04-25T10:46:49;98632.84;;;22.38;27.86
49178;BME280;35016;55.674;37.468;2023-04-25T10:49:41;98631.06;;;22.46;27.54
49178;BME280;35016;55.674;37.468;2023-04-25T10:54:56;98607.00;;;22.46;27.90
49178;BME280;35016;55.674;37.468;2023-04-25T10:57:42;98616.97;;;22.51;27.84
49178;BME280;35016;55.674;37.468;2023-04-25T11:00:13;98614.47;;;22.46;28.08
49178;BME280;35016;55.674;37.468;2023-04-25T11:02:52;98614.47;;;22.46;28.17
49178;BME280;35016;55.674;37.468;2023-04-25T11:05:32;98603.06;;;22.47;28.02
49178;BME280;35016;55.674;37.468;2023-04-25T11:08:12;98595.66;;;22.51;27.93
49178;BME280;35016;55.674;37.468;2023-04-25T11:10:41;98596.34;;;22.64;27.96
49178;BME280;35016;55.674;37.468;2023-04-25T11:13:08;98592.22;;;22.74;28.02
49178;BME280;35016;55.674;37.468;2023-04-25T11:15:35;98592.81;;;22.83;27.73
49178;BME280;35016;55.674;37.468;2023-04-25T11:18:02;98584.69;;;22.90;27.64
49178;BME280;35016;55.674;37.468;2023-04-25T11:20:29;98597.06;;;22.96;27.61
49178;BME280;35016;55.674;37.468;2023-04-25T11:23:00;98582.44;;;22.96;27.39
49178;BME280;35016;55.674;37.468;2023-04-25T11:25:27;98575.59;;;22.90;27.41
49178;BME280;35016;55.674;37.468;2023-04-25T11:27:57;98585.88;;;22.73;27.58
49178;BME280;35016;55.674;37.468;2023-04-25T11:30:25;98574.09;;;22.57;27.69
49178;BME280;35016;55.674;37.468;2023-04-25T11:32:53;98579.13;;;22.36;27.92
49178;BME280;35016;55.674;37.468;2023-04-25T11:35:20;98567.66;;;22.18;28.09
49178;BME280;35016;55.674;37.468;2023-04-25T11:37:50;98572.66;;;22.12;28.25
49178;BME280;35016;55.674;37.468;2023-04-25T11:40:17;98569.38;;;22.07;28.52
49178;BME280;35016;55.674;37.468;2023-04-25T11:42:46;98566.25;;;22.08;28.41
49178;BME280;35016;55.674;37.468;2023-04-25T11:45:14;98558.56;;;22.17;28.36
49178;BME280;35016;55.674;37.468;2023-04-25T11:47:41;98558.19;;;22.35;28.34
49178;BME280;35016;55.674;37.468;2023-04-25T11:50:09;98556.91;;;22.48;28.34
49178;BME280;35016;55.674;37.468;2023-04-25T11:52:46;98548.13;;;22.62;28.09
49178;BME280;35016;55.674;37.468;2023-04-25T11:55:15;98540.72;;;22.66;27.92
49178;BME280;35016;55.674;37.468;2023-04-25T11:57:44;98541.00;;;22.61;27.92
49178;BME280;35016;55.674;37.468;2023-04-25T12:00:14;98547.16;;;22.54;27.97
49178;BME280;35016;55.674;37.468;2023-04-25T12:02:55;98545.75;;;22.44;27.86
49178;BME280;35016;55.674;37.468;2023-04-25T12:05:27;98542.13;;;22.40;28.37
49178;BME280;35016;55.674;37.468;2023-04-25T12:08:18;98535.94;;;22.47;27.99
49178;BME280;35016;55.674;37.468;2023-04-25T12:10:45;98528.81;;;22.27;28.16
49178;BME280;35016;55.674;37.468;2023-04-25T12:13:23;98531.97;;;22.09;28.24
49178;BME280;35016;55.674;37.468;2023-04-25T12:15:53;98520.72;;;22.02;28.39
49178;BME280;35016;55.674;37.468;2023-04-25T12:18:23;98517.72;;;22.07;28.48
49178;BME280;35016;55.674;37.468;2023-04-25T12:20:52;98521.34;;;22.11;28.33
49178;BME280;35016;55.674;37.468;2023-04-25T12:23:27;98515.34;;;22.25;28.56
49178;BME280;35016;55.674;37.468;2023-04-25T12:25:55;98510.34;;;22.31;28.23
49178;BME280;35016;55.674;37.468;2023-04-25T12:28:26;98499.81;;;22.36;28.49
49178;BME280;35016;55.674;37.468;2023-04-25T12:31:06;98495.31;;;22.47;28.41
49178;BME280;35016;55.674;37.468;2023-04-25T12:33:40;98500.28;;;22.58;27.98
49178;BME280;35016;55.674;37.468;2023-04-25T12:36:11;98487.63;;;22.56;27.74
49178;BME280;35016;55.674;37.468;2023-04-25T12:38:41;98491.81;;;22.50;27.72
49178;BME280;35016;55.674;37.468;2023-04-25T12:41:09;98491.31;;;22.45;27.77
49178;BME280;35016;55.674;37.468;2023-04-25T12:43:36;98473.00;;;22.37;27.81
49178;BME280;35016;55.674;37.468;2023-04-25T12:46:03;98483.59;;;22.35;28.02
49178;BME280;35016;55.674;37.468;2023-04-25T12:48:30;98470.09;;;22.30;27.94
49178;BME280;35016;55.674;37.468;2023-04-25T12:50:57;98472.47;;;22.31;28.10
49178;BME280;35016;55.674;37.468;2023-04-25T12:53:25;98474.88;;;22.33;28.26
49178;BME280;35016;55.674;37.468;2023-04-25T12:55:52;98465.56;;;22.41;28.35
49178;BME280;35016;55.674;37.468;2023-04-25T12:58:24;98463.81;;;22.52;28.13
49178;BME280;35016;55.674;37.468;2023-04-25T13:00:52;98463.25;;;22.62;28.08
49178;BME280;35016;55.674;37.468;2023-04-25T13:03:21;98451.16;;;22.70;28.07
49178;BME280;35016;55.674;37.468;2023-04-25T13:05:52;98451.97;;;22.71;27.95
49178;BME280;35016;55.674;37.468;2023-04-25T13:08:19;98446.31;;;22.64;28.17
49178;BME280;35016;55.674;37.468;2023-04-25T13:10:49;98446.31;;;22.64;28.29
49178;BME280;35016;55.674;37.468;2023-04-25T13:13:16;98435.56;;;23.01;28.04
49178;BME280;35016;55.674;37.468;2023-04-25T13:15:43;98440.59;;;23.64;27.78
49178;BME280;35016;55.674;37.468;2023-04-25T13:18:10;98435.28;;;24.31;27.27